sensor_id;sensor_type;location;lat;lon;timestamp;pressure;altitude;pressure_sealevel;temperature;humidity
9893;BME280;4985;49.092;8.542;2023-02-19T00:01:44;99907.81;;;15.06;54.19
9893;BME280;4985;49.092;8.542;2023-02-19T00:04:13;99912.25;;;15.06;54.19
9893;BME280;4985;49.092;8.542;2023-02-19T00:06:41;99910.47;;;15.06;54.20
9893;BME280;4985;49.092;8.542;2023-02-19T00:09:08;99905.16;;;15.06;54.18
9893;BME280;4985;49.092;8.542;2023-02-19T00:11:35;99903.34;;;15.07;54.15
9893;BME280;4985;49.092;8.542;2023-02-19T00:14:02;99897.22;;;15.06;54.17
9893;BME280;4985;49.092;8.542;2023-02-19T00:16:32;99901.66;;;15.06;54.17
9893;BME280;4985;49.092;8.542;2023-02-19T00:19:02;99908.78;;;15.05;54.20
9893;BME280;4985;49.092;8.542;2023-02-19T00:21:29;99906.12;;;15.05;54.21
9893;BME280;4985;49.092;8.542;2023-02-19T00:23:57;99909.78;;;15.04;54.22
9893;BME280;4985;49.092;8.542;2023-02-19T00:26:25;99909.78;;;15.04;54.23
9893;BME280;4985;49.092;8.542;2023-02-19T00:28:54;99892.41;;;15.02;54.22
9893;BME280;4985;49.092;8.542;2023-02-19T00:31:22;99890.41;;;15.04;54.25
9893;BME280;4985;49.092;8.542;2023-02-19T00:33:51;99873.69;;;15.03;54.25
9893;BME280;4985;49.092;8.542;2023-02-19T00:36:20;99879.16;;;15.02;54.27
9893;BME280;4985;49.092;8.542;2023-02-19T00:38:47;99864.06;;;15.02;54.27
9893;BME280;4985;49.092;8.542;2023-02-19T00:41:15;99867.38;;;15.04;54.26
9893;BME280;4985;49.092;8.542;2023-02-19T00:43:46;99874.69;;;15.02;54.25
9893;BME280;4985;49.092;8.542;2023-02-19T00:46:13;99867.59;;;14.95;54.24
9893;BME280;4985;49.092;8.542;2023-02-19T00:48:40;99876.06;;;14.98;54.26
9893;BME280;4985;49.092;8.542;2023-02-19T00:51:06;99882.62;;;15.02;54.27
9893;BME280;4985;49.092;8.542;2023-02-19T00:53:34;99874.69;;;15.02;54.27
9893;BME280;4985;49.092;8.542;2023-02-19T00:56:01;99870.38;;;15.01;54.28
9893;BME280;4985;49.092;8.542;2023-02-19T00:58:28;99855.47;;;15.00;54.28
9893;BME280;4985;49.092;8.542;2023-02-19T01:00:54;99860.41;;;15.03;54.27
9893;BME280;4985;49.092;8.542;2023-02-19T01:03:21;99856.94;;;15.03;54.26
9893;BME280;4985;49.092;8.542;2023-02-19T01:05:47;99862.44;;;15.01;54.26
9893;BME280;4985;49.092;8.542;2023-02-19T01:08:14;99870.38;;;15.01;54.29
9893;BME280;4985;49.092;8.542;2023-02-19T01:10:42;99874.88;;;15.01;54.29
9893;BME280;4985;49.092;8.542;2023-02-19T01:13:09;99875.22;;;14.98;54.29
9893;BME280;4985;49.092;8.542;2023-02-19T01:15:36;99879.97;;;15.02;54.27
9893;BME280;4985;49.092;8.542;2023-02-19T01:18:02;99877.53;;;15.01;54.31
9893;BME280;4985;49.092;8.542;2023-02-19T01:20:29;99875.69;;;15.01;54.30
9893;BME280;4985;49.092;8.542;2023-02-19T01:22:55;99873.03;;;15.01;54.30
9893;BME280;4985;49.092;8.542;2023-02-19T01:25:22;99860.78;;;15.00;54.30
9893;BME280;4985;49.092;8.542;2023-02-19T01:27:50;99875.69;;;15.01;54.30
9893;BME280;4985;49.092;8.542;2023-02-19T01:30:17;99868.75;;;15.00;54.31
9893;BME280;4985;49.092;8.542;2023-02-19T01:32:43;99865.25;;;15.00;54.32
9893;BME280;4985;49.092;8.542;2023-02-19T01:35:10;99867.91;;;15.00;54.35
9893;BME280;4985;49.092;8.542;2023-02-19T01:37:36;99862.78;;;14.98;54.37
9893;BME280;4985;49.092;8.542;2023-02-19T01:40:03;99873.22;;;15.00;54.35
9893;BME280;4985;49.092;8.542;2023-02-19T01:42:30;99866.09;;;15.00;54.34
9893;BME280;4985;49.092;8.542;2023-02-19T01:45:18;99876.22;;;14.97;54.34
9893;BME280;4985;49.092;8.542;2023-02-19T01:47:51;99875.03;;;14.99;54.35
9893;BME280;4985;49.092;8.542;2023-02-19T01:50:19;99874.22;;;14.99;54.37
9893;BME280;4985;49.092;8.542;2023-02-19T01:52:46;99873.41;;;14.98;54.38
9893;BME280;4985;49.092;8.542;2023-02-19T01:55:13;99876.69;;;15.00;54.38
9893;BME280;4985;49.092;8.542;2023-02-19T01:57:43;99858.31;;;14.99;54.38
9893;BME280;4985;49.092;8.542;2023-02-19T02:00:13;99855.84;;;14.97;54.37
9893;BME280;4985;49.092;8.542;2023-02-19T02:02:47;99865.25;;;15.00;54.36
9893;BME280;4985;49.092;8.542;2023-02-19T02:05:20;99860.97;;;14.99;54.35
9893;BME280;4985;49.092;8.542;2023-02-19T02:07:50;99863.44;;;15.00;54.34
9893;BME280;4985;49.092;8.542;2023-02-19T02:10:35;99866.09;;;15.00;54.32
9893;BME280;4985;49.092;8.542;2023-02-19T02:13:02;99858.13;;;15.00;54.32
9893;BME280;4985;49.092;8.542;2023-02-19T02:15:35;99836.09;;;15.00;54.34
9893;BME280;4985;49.092;8.542;2023-02-19T02:18:13;99822.03;;;14.99;54.34
9893;BME280;4985;49.092;8.542;2023-02-19T02:20:56;99828.97;;;15.00;54.34
9893;BME280;4985;49.092;8.542;2023-02-19T02:23:36;99834.28;;;15.00;54.33
9893;BME280;4985;49.092;8.542;2023-02-19T02:26:19;99837.75;;;15.01;54.33
9893;BME280;4985;49.092;8.542;2023-02-19T02:31:56;99837.94;;;14.99;54.33
9893;BME280;4985;49.092;8.542;2023-02-19T02:34:27;99835.28;;;14.99;54.31
9893;BME280;4985;49.092;8.542;2023-02-19T02:36:55;99828.69;;;14.95;54.33
9893;BME280;4985;49.092;8.542;2023-02-19T02:39:24;99827.31;;;14.99;54.37
9893;BME280;4985;49.092;8.542;2023-02-19T02:41:55;99832.63;;;14.99;54.37
9893;BME280;4985;49.092;8.542;2023-02-19T02:44:36;99825.69;;;14.98;54.38
9893;BME280;4985;49.092;8.542;2023-02-19T02:47:05;99820.38;;;14.98;54.38
9893;BME280;4985;49.092;8.542;2023-02-19T02:49:52;99826.69;;;14.97;54.37
9893;BME280;4985;49.092;8.542;2023-02-19T02:52:31;99821.38;;;14.97;54.38
9893;BME280;4985;49.092;8.542;2023-02-19T02:55:16;99824.03;;;14.97;54.39
9893;BME280;4985;49.092;8.542;2023-02-19T02:57:44;99822.38;;;14.96;54.40
9893;BME280;4985;49.092;8.542;2023-02-19T03:00:12;99822.38;;;14.96;54.41
9893;BME280;4985;49.092;8.542;2023-02-19T03:02:41;99821.38;;;14.97;54.41
9893;BME280;4985;49.092;8.542;2023-02-19T03:05:12;99817.09;;;14.96;54.39
9893;BME280;4985;49.092;8.542;2023-02-19T03:08:03;99808.13;;;14.97;54.42
9893;BME280;4985;49.092;8.542;2023-02-19T03:10:33;99795.87;;;14.96;54.41
9893;BME280;4985;49.092;8.542;2023-02-19T03:13:02;99795.19;;;14.94;54.42
9893;BME280;4985;49.092;8.542;2023-02-19T03:15:51;99802.81;;;14.97;54.40
9893;BME280;4985;49.092;8.542;2023-02-19T03:18:44;99797.53;;;14.97;54.39
9893;BME280;4985;49.092;8.542;2023-02-19T03:21:31;99806.47;;;14.96;54.41
9893;BME280;4985;49.092;8.542;2023-02-19T03:24:00;99798.53;;;14.96;54.42
9893;BME280;4985;49.092;8.542;2023-02-19T03:26:47;99802.81;;;14.97;54.41
9893;BME280;4985;49.092;8.542;2023-02-19T03:29:19;99799.53;;;14.95;54.42
9893;BME280;4985;49.092;8.542;2023-02-19T03:31:52;99786.28;;;14.95;54.43
9893;BME280;4985;49.092;8.542;2023-02-19T03:34:24;99800.34;;;14.96;54.42
9893;BME280;4985;49.092;8.542;2023-02-19T03:36:57;99794.22;;;14.95;54.44
9893;BME280;4985;49.092;8.542;2023-02-19T03:39:26;99794.56;;;14.92;54.43
9893;BME280;4985;49.092;8.542;2023-02-19T03:41:59;99791.56;;;14.95;54.43
9893;BME280;4985;49.092;8.542;2023-02-19T03:44:37;99797.84;;;14.94;54.45
9893;BME280;4985;49.092;8.542;2023-02-19T03:47:13;99803.97;;;14.95;54.46
9893;BME280;4985;49.092;8.542;2023-02-19T03:49:47;99805.81;;;14.94;54.45
9893;BME280;4985;49.092;8.542;2023-02-19T03:52:19;99804.84;;;14.95;54.44
9893;BME280;4985;49.092;8.542;2023-02-19T03:54:53;99806.62;;;14.95;54.45
9893;BME280;4985;49.092;8.542;2023-02-19T03:57:23;99823.53;;;14.94;54.48
9893;BME280;4985;49.092;8.542;2023-02-19T03:59:57;99813.94;;;14.93;54.48
9893;BME280;4985;49.092;8.542;2023-02-19T04:02:28;99824.53;;;14.93;54.50
9893;BME280;4985;49.092;8.542;2023-02-19T04:05:02;99826.37;;;14.92;54.53
9893;BME280;4985;49.092;8.542;2023-02-19T04:07:34;99813.31;;;14.91;54.53
9893;BME280;4985;49.092;8.542;2023-02-19T04:10:04;99821.06;;;14.92;54.51
9893;BME280;4985;49.092;8.542;2023-02-19T04:12:32;99827.19;;;14.93;54.53
9893;BME280;4985;49.092;8.542;2023-02-19T04:15:02;99823.72;;;14.92;54.51
9893;BME280;4985;49.092;8.542;2023-02-19T04:17:33;99819.44;;;14.91;54.54
9893;BME280;4985;49.092;8.542;2023-02-19T04:20:06;99814.12;;;14.91;54.53
9893;BME280;4985;49.092;8.542;2023-02-19T04:22:34;99825.72;;;14.90;54.54
9893;BME280;4985;49.092;8.542;2023-02-19T04:25:02;99834.50;;;14.91;54.55
9893;BME280;4985;49.092;8.542;2023-02-19T04:27:28;99840.63;;;14.91;54.56
9893;BME280;4985;49.092;8.542;2023-02-19T04:29:55;99830.03;;;14.91;54.55
9893;BME280;4985;49.092;8.542;2023-02-19T04:32:22;99848.59;;;14.91;54.54
9893;BME280;4985;49.092;8.542;2023-02-19T04:34:48;99835.34;;;14.91;54.52
9893;BME280;4985;49.092;8.542;2023-02-19T04:37:16;99852.88;;;14.92;54.52
9893;BME280;4985;49.092;8.542;2023-02-19T04:39:43;99850.22;;;14.92;54.52
9893;BME280;4985;49.092;8.542;2023-02-19T04:42:09;99833.69;;;14.90;54.54
9893;BME280;4985;49.092;8.542;2023-02-19T04:44:36;99847.75;;;14.91;54.53
9893;BME280;4985;49.092;8.542;2023-02-19T04:47:03;99833.69;;;14.90;54.53
9893;BME280;4985;49.092;8.542;2023-02-19T04:49:29;99850.41;;;14.91;54.53
9893;BME280;4985;49.092;8.542;2023-02-19T04:51:56;99845.12;;;14.91;54.54
9893;BME280;4985;49.092;8.542;2023-02-19T04:54:24;99844.28;;;14.90;54.54
9893;BME280;4985;49.092;8.542;2023-02-19T04:56:50;99860.19;;;14.90;54.54
9893;BME280;4985;49.092;8.542;2023-02-19T04:59:17;99864.69;;;14.90;54.54
9893;BME280;4985;49.092;8.542;2023-02-19T05:01:44;99860.19;;;14.90;54.56
9893;BME280;4985;49.092;8.542;2023-02-19T05:04:10;99864.69;;;14.90;54.54
9893;BME280;4985;49.092;8.542;2023-02-19T05:06:37;99857.53;;;14.90;54.56
9893;BME280;4985;49.092;8.542;2023-02-19T05:09:03;99848.13;;;14.88;54.55
9893;BME280;4985;49.092;8.542;2023-02-19T05:11:31;99847.13;;;14.89;54.56
9893;BME280;4985;49.092;8.542;2023-02-19T05:13:58;99841.81;;;14.89;54.58
9893;BME280;4985;49.092;8.542;2023-02-19T05:16:24;99851.97;;;14.85;54.57
9893;BME280;4985;49.092;8.542;2023-02-19T05:18:51;99848.94;;;14.88;54.58
9893;BME280;4985;49.092;8.542;2023-02-19T05:21:17;99843.84;;;14.87;54.58
9893;BME280;4985;49.092;8.542;2023-02-19T05:23:44;99847.94;;;14.89;54.58
9893;BME280;4985;49.092;8.542;2023-02-19T05:26:12;99859.56;;;14.88;54.57
9893;BME280;4985;49.092;8.542;2023-02-19T05:28:42;99862.22;;;14.88;54.57
9893;BME280;4985;49.092;8.542;2023-02-19T05:31:10;99850.78;;;14.88;54.58
9893;BME280;4985;49.092;8.542;2023-02-19T05:33:37;99833.03;;;14.88;54.59
9893;BME280;4985;49.092;8.542;2023-02-19T05:36:05;99826.75;;;14.89;54.56
9893;BME280;4985;49.092;8.542;2023-02-19T05:38:33;99845.28;;;14.89;54.54
9893;BME280;4985;49.092;8.542;2023-02-19T05:41:06;99854.06;;;14.90;54.54
9893;BME280;4985;49.092;8.542;2023-02-19T05:43:33;99841.81;;;14.89;54.53
9893;BME280;4985;49.092;8.542;2023-02-19T05:46:01;99854.25;;;14.88;54.54
9893;BME280;4985;49.092;8.542;2023-02-19T05:48:27;99847.94;;;14.89;54.54
9893;BME280;4985;49.092;8.542;2023-02-19T05:51:00;99852.44;;;14.89;54.55
9893;BME280;4985;49.092;8.542;2023-02-19T05:53:27;99850.97;;;14.86;54.54
9893;BME280;4985;49.092;8.542;2023-02-19T05:55:53;99841.81;;;14.89;54.53
9893;BME280;4985;49.092;8.542;2023-02-19T05:58:20;99848.94;;;14.88;54.53
9893;BME280;4985;49.092;8.542;2023-02-19T06:00:46;99854.06;;;14.90;54.53
9893;BME280;4985;49.092;8.542;2023-02-19T06:03:14;99867.31;;;14.90;54.52
9893;BME280;4985;49.092;8.542;2023-02-19T06:05:41;99866.50;;;14.89;54.52
9893;BME280;4985;49.092;8.542;2023-02-19T06:08:08;99871.16;;;14.87;54.54
9893;BME280;4985;49.092;8.542;2023-02-19T06:10:37;99882.41;;;14.89;54.52
9893;BME280;4985;49.092;8.542;2023-02-19T06:13:05;99880.75;;;14.88;54.50
9893;BME280;4985;49.092;8.542;2023-02-19T06:15:32;99881.41;;;14.90;54.49
9893;BME280;4985;49.092;8.542;2023-02-19T06:17:59;99884.06;;;14.90;54.48
9893;BME280;4985;49.092;8.542;2023-02-19T06:20:27;99890.34;;;14.89;54.49
9893;BME280;4985;49.092;8.542;2023-02-19T06:22:54;99904.63;;;14.88;54.50
9893;BME280;4985;49.092;8.542;2023-02-19T06:25:21;99906.25;;;14.89;54.52
9893;BME280;4985;49.092;8.542;2023-02-19T06:27:47;99911.56;;;14.89;54.50
9893;BME280;4985;49.092;8.542;2023-02-19T06:30:14;99916.87;;;14.89;54.51
9893;BME280;4985;49.092;8.542;2023-02-19T06:32:41;99907.28;;;14.88;54.51
9893;BME280;4985;49.092;8.542;2023-02-19T06:35:07;99915.22;;;14.88;54.51
9893;BME280;4985;49.092;8.542;2023-02-19T06:37:35;99925.81;;;14.88;54.52
9893;BME280;4985;49.092;8.542;2023-02-19T06:40:02;99927.84;;;14.86;54.51
9893;BME280;4985;49.092;8.542;2023-02-19T06:42:30;99940.91;;;14.88;54.53
9893;BME280;4985;49.092;8.542;2023-02-19T06:44:57;99945.38;;;14.87;54.54
9893;BME280;4985;49.092;8.542;2023-02-19T06:47:24;99962.09;;;14.88;54.53
9893;BME280;4985;49.092;8.542;2023-02-19T06:49:50;99950.69;;;14.87;54.54
9893;BME280;4985;49.092;8.542;2023-02-19T06:52:17;99954.97;;;14.88;54.54
9893;BME280;4985;49.092;8.542;2023-02-19T06:54:45;99955.97;;;14.87;54.54
9893;BME280;4985;49.092;8.542;2023-02-19T06:57:11;99965.59;;;14.88;54.52
9893;BME280;4985;49.092;8.542;2023-02-19T06:59:38;99949.38;;;14.83;54.52
9893;BME280;4985;49.092;8.542;2023-02-19T07:02:04;99959.62;;;14.86;54.53
9893;BME280;4985;49.092;8.542;2023-02-19T07:04:31;99955.97;;;14.87;54.52
9893;BME280;4985;49.092;8.542;2023-02-19T07:06:57;99969.25;;;14.87;54.54
9893;BME280;4985;49.092;8.542;2023-02-19T07:09:25;99979.03;;;14.87;54.55
9893;BME280;4985;49.092;8.542;2023-02-19T07:11:54;99987.78;;;14.87;54.54
9893;BME280;4985;49.092;8.542;2023-02-19T07:14:20;99984.31;;;14.87;54.54
9893;BME280;4985;49.092;8.542;2023-02-19T07:16:47;99975.88;;;14.83;54.54
9893;BME280;4985;49.092;8.542;2023-02-19T07:19:14;99989.62;;;14.87;54.54
9893;BME280;4985;49.092;8.542;2023-02-19T07:21:41;99996.75;;;14.86;54.53
9893;BME280;4985;49.092;8.542;2023-02-19T07:24:09;99998.75;;;14.84;54.54
9893;BME280;4985;49.092;8.542;2023-02-19T07:26:35;99995.94;;;14.85;54.54
9893;BME280;4985;49.092;8.542;2023-02-19T07:29:03;99991.31;;;14.79;54.54
9893;BME280;4985;49.092;8.542;2023-02-19T07:31:30;100011.00;;;14.85;54.57
9893;BME280;4985;49.092;8.542;2023-02-19T07:33:57;100004.06;;;14.84;54.57
9893;BME280;4985;49.092;8.542;2023-02-19T07:36:23;100006.72;;;14.84;54.57
9893;BME280;4985;49.092;8.542;2023-02-19T07:38:54;99994.41;;;14.83;54.58
9893;BME280;4985;49.092;8.542;2023-02-19T07:41:21;100000.41;;;14.85;54.57
9893;BME280;4985;49.092;8.542;2023-02-19T07:43:48;99993.44;;;14.84;54.57
9893;BME280;4985;49.092;8.542;2023-02-19T07:46:16;99998.75;;;14.84;54.58
9893;BME280;4985;49.092;8.542;2023-02-19T07:48:42;99998.75;;;14.84;54.58
9893;BME280;4985;49.092;8.542;2023-02-19T07:51:11;100001.72;;;14.81;54.61
9893;BME280;4985;49.092;8.542;2023-02-19T07:53:38;99997.06;;;14.83;54.61
9893;BME280;4985;49.092;8.542;2023-02-19T07:56:06;99995.44;;;14.82;54.63
9893;BME280;4985;49.092;8.542;2023-02-19T07:58:34;99987.28;;;14.83;54.60
9893;BME280;4985;49.092;8.542;2023-02-19T08:01:06;99991.78;;;14.83;54.59
9893;BME280;4985;49.092;8.542;2023-02-19T08:03:34;99986.47;;;14.83;54.60
9893;BME280;4985;49.092;8.542;2023-02-19T08:06:00;99985.81;;;14.81;54.62
9893;BME280;4985;49.092;8.542;2023-02-19T08:08:26;100001.56;;;14.82;54.62
9893;BME280;4985;49.092;8.542;2023-02-19T08:10:53;100006.03;;;14.82;54.63
9893;BME280;4985;49.092;8.542;2023-02-19T08:13:37;100004.72;;;14.78;54.64
9893;BME280;4985;49.092;8.542;2023-02-19T08:16:13;100015.81;;;14.81;54.64
9893;BME280;4985;49.092;8.542;2023-02-19T08:18:43;100012.97;;;14.83;54.63
9893;BME280;4985;49.092;8.542;2023-02-19T08:21:09;100021.94;;;14.82;54.63
9893;BME280;4985;49.092;8.542;2023-02-19T08:23:36;100028.06;;;14.82;54.63
9893;BME280;4985;49.092;8.542;2023-02-19T08:26:03;100027.06;;;14.83;54.62
9893;BME280;4985;49.092;8.542;2023-02-19T08:28:30;100040.47;;;14.82;54.62
9893;BME280;4985;49.092;8.542;2023-02-19T08:30:58;100038.66;;;14.82;54.63
9893;BME280;4985;49.092;8.542;2023-02-19T08:33:26;100036.00;;;14.82;54.65
9893;BME280;4985;49.092;8.542;2023-02-19T08:35:54;100030.25;;;14.79;54.64
9893;BME280;4985;49.092;8.542;2023-02-19T08:38:21;100041.31;;;14.82;54.64
9893;BME280;4985;49.092;8.542;2023-02-19T08:40:47;100039.66;;;14.81;54.65
9893;BME280;4985;49.092;8.542;2023-02-19T08:43:15;100056.38;;;14.82;54.65
9893;BME280;4985;49.092;8.542;2023-02-19T08:45:44;100058.22;;;14.81;54.67
9893;BME280;4985;49.092;8.542;2023-02-19T08:48:11;100059.03;;;14.82;54.67
9893;BME280;4985;49.092;8.542;2023-02-19T08:50:38;100069.66;;;14.82;54.66
9893;BME280;4985;49.092;8.542;2023-02-19T08:53:06;100062.50;;;14.82;54.64
9893;BME280;4985;49.092;8.542;2023-02-19T08:55:32;100059.88;;;14.82;54.64
9893;BME280;4985;49.092;8.542;2023-02-19T08:57:59;100069.66;;;14.82;54.65
9893;BME280;4985;49.092;8.542;2023-02-19T09:00:25;100078.41;;;14.82;54.66
9893;BME280;4985;49.092;8.542;2023-02-19T09:02:52;100082.91;;;14.82;54.67
9893;BME280;4985;49.092;8.542;2023-02-19T09:05:19;100068.81;;;14.81;54.67
9893;BME280;4985;49.092;8.542;2023-02-19T09:07:46;100070.81;;;14.79;54.66
9893;BME280;4985;49.092;8.542;2023-02-19T09:10:14;100071.28;;;14.83;54.66
9893;BME280;4985;49.092;8.542;2023-02-19T09:12:40;100075.78;;;14.82;54.64
9893;BME280;4985;49.092;8.542;2023-02-19T09:15:07;100064.16;;;14.83;54.64
9893;BME280;4985;49.092;8.542;2023-02-19T09:17:34;100065.03;;;14.84;54.63
9893;BME280;4985;49.092;8.542;2023-02-19T09:20:00;100060.69;;;14.83;54.66
9893;BME280;4985;49.092;8.542;2023-02-19T09:22:27;100063.69;;;14.80;54.66
9893;BME280;4985;49.092;8.542;2023-02-19T09:24:54;100062.50;;;14.82;54.68
9893;BME280;4985;49.092;8.542;2023-02-19T09:27:22;100050.09;;;14.83;54.67
9893;BME280;4985;49.092;8.542;2023-02-19T09:29:48;100050.09;;;14.83;54.68
9893;BME280;4985;49.092;8.542;2023-02-19T09:32:15;100063.34;;;14.83;54.71
9893;BME280;4985;49.092;8.542;2023-02-19T09:34:42;100066.00;;;14.83;54.71
9893;BME280;4985;49.092;8.542;2023-02-19T09:37:08;100066.81;;;14.83;54.71
9893;BME280;4985;49.092;8.542;2023-02-19T09:39:35;100078.41;;;14.82;54.71
9893;BME280;4985;49.092;8.542;2023-02-19T09:42:03;100080.06;;;14.83;54.73
9893;BME280;4985;49.092;8.542;2023-02-19T09:44:39;100084.53;;;14.83;54.72
9893;BME280;4985;49.092;8.542;2023-02-19T09:47:15;100091.34;;;14.85;54.71
9893;BME280;4985;49.092;8.542;2023-02-19T09:49:43;100095.84;;;14.85;54.71
9893;BME280;4985;49.092;8.542;2023-02-19T09:52:18;100090.53;;;14.85;54.73
9893;BME280;4985;49.092;8.542;2023-02-19T09:54:47;100095.84;;;14.85;54.75
9893;BME280;4985;49.092;8.542;2023-02-19T09:57:16;100092.34;;;14.84;54.74
9893;BME280;4985;49.092;8.542;2023-02-19T09:59:47;100106.44;;;14.85;54.75
9893;BME280;4985;49.092;8.542;2023-02-19T10:02:16;100105.59;;;14.84;54.77
9893;BME280;4985;49.092;8.542;2023-02-19T10:04:44;100103.78;;;14.85;54.77
9893;BME280;4985;49.092;8.542;2023-02-19T10:07:12;100111.06;;;14.83;54.77
9893;BME280;4985;49.092;8.542;2023-02-19T10:09:39;100121.34;;;14.86;54.80
9893;BME280;4985;49.092;8.542;2023-02-19T10:12:13;100127.78;;;14.83;54.80
9893;BME280;4985;49.092;8.542;2023-02-19T10:14:45;100130.44;;;14.83;54.81
9893;BME280;4985;49.092;8.542;2023-02-19T10:17:22;100138.25;;;14.85;54.83
9893;BME280;4985;49.092;8.542;2023-02-19T10:19:49;100157.81;;;14.84;54.82
9893;BME280;4985;49.092;8.542;2023-02-19T10:22:16;100156.94;;;14.83;54.84
9893;BME280;4985;49.092;8.542;2023-02-19T10:24:43;100155.28;;;14.82;54.84
9893;BME280;4985;49.092;8.542;2023-02-19T10:27:12;100159.44;;;14.85;54.83
9893;BME280;4985;49.092;8.542;2023-02-19T10:29:38;100156.81;;;14.85;54.82
9893;BME280;4985;49.092;8.542;2023-02-19T10:32:15;100155.81;;;14.86;54.81
9893;BME280;4985;49.092;8.542;2023-02-19T10:34:45;100142.72;;;14.84;54.80
9893;BME280;4985;49.092;8.542;2023-02-19T10:37:14;100132.59;;;14.80;54.80
9893;BME280;4985;49.092;8.542;2023-02-19T10:39:43;100152.97;;;14.88;54.81
9893;BME280;4985;49.092;8.542;2023-02-19T10:42:14;100141.56;;;14.87;54.79
9893;BME280;4985;49.092;8.542;2023-02-19T10:44:43;100151.16;;;14.88;54.77
9893;BME280;4985;49.092;8.542;2023-02-19T10:47:17;100155.44;;;14.89;54.78
9893;BME280;4985;49.092;8.542;2023-02-19T10:49:45;100161.59;;;14.90;54.78
9893;BME280;4985;49.092;8.542;2023-02-19T10:52:16;100164.22;;;14.90;54.76
9893;BME280;4985;49.092;8.542;2023-02-19T10:54:45;100161.41;;;14.91;54.76
9893;BME280;4985;49.092;8.542;2023-02-19T10:57:23;100157.28;;;14.89;54.74
9893;BME280;4985;49.092;8.542;2023-02-19T10:59:56;100164.06;;;14.91;54.77
9893;BME280;4985;49.092;8.542;2023-02-19T11:02:24;100161.41;;;14.91;54.77
9893;BME280;4985;49.092;8.542;2023-02-19T11:05:13;100158.75;;;14.91;54.79
9893;BME280;4985;49.092;8.542;2023-02-19T11:07:43;100159.59;;;14.92;54.82
9893;BME280;4985;49.092;8.542;2023-02-19T11:10:19;100157.28;;;14.89;54.83
9893;BME280;4985;49.092;8.542;2023-02-19T11:12:48;100163.22;;;14.91;54.83
9893;BME280;4985;49.092;8.542;2023-02-19T11:15:20;100155.44;;;14.89;54.84
9893;BME280;4985;49.092;8.542;2023-02-19T11:17:55;100156.09;;;14.91;54.85
9893;BME280;4985;49.092;8.542;2023-02-19T11:20:23;100156.28;;;14.90;54.84
9893;BME280;4985;49.092;8.542;2023-02-19T11:22:50;100151.81;;;14.90;54.86
9893;BME280;4985;49.092;8.542;2023-02-19T11:25:19;100148.97;;;14.92;54.86
9893;BME280;4985;49.092;8.542;2023-02-19T11:27:56;100153.44;;;14.91;54.85
9893;BME280;4985;49.092;8.542;2023-02-19T11:30:35;100156.09;;;14.91;54.87
9893;BME280;4985;49.092;8.542;2023-02-19T11:33:20;100161.41;;;14.91;54.88
9893;BME280;4985;49.092;8.542;2023-02-19T11:35:48;100159.59;;;14.92;54.88
9893;BME280;4985;49.092;8.542;2023-02-19T11:38:17;100166.88;;;14.90;54.88
9893;BME280;4985;49.092;8.542;2023-02-19T11:40:49;100168.38;;;14.92;54.89
9893;BME280;4985;49.092;8.542;2023-02-19T11:46:23;100186.09;;;14.92;54.90
9893;BME280;4985;49.092;8.542;2023-02-19T11:49:04;100186.91;;;14.92;54.89
9893;BME280;4985;49.092;8.542;2023-02-19T11:51:45;100204.47;;;14.93;54.89
9893;BME280;4985;49.092;8.542;2023-02-19T11:54:21;100206.97;;;14.95;54.89
9893;BME280;4985;49.092;8.542;2023-02-19T11:56:58;100200.00;;;14.94;54.87
9893;BME280;4985;49.092;8.542;2023-02-19T11:59:32;100200.81;;;14.94;54.86
9893;BME280;4985;49.092;8.542;2023-02-19T12:05:16;100197.22;;;14.95;54.84
9893;BME280;4985;49.092;8.542;2023-02-19T12:08:03;100191.91;;;14.95;54.86
9893;BME280;4985;49.092;8.542;2023-02-19T12:10:48;100182.94;;;14.96;54.84
9893;BME280;4985;49.092;8.542;2023-02-19T12:13:25;100166.37;;;14.94;54.84
9893;BME280;4985;49.092;8.542;2023-02-19T12:16:10;100166.03;;;14.97;54.84
9893;BME280;4985;49.092;8.542;2023-02-19T12:18:58;100163.41;;;14.97;54.83
9893;BME280;4985;49.092;8.542;2023-02-19T12:21:53;100160.75;;;14.97;54.82
9893;BME280;4985;49.092;8.542;2023-02-19T12:27:39;100163.41;;;14.97;54.83
9893;BME280;4985;49.092;8.542;2023-02-19T12:30:24;100166.03;;;14.97;54.83
9893;BME280;4985;49.092;8.542;2023-02-19T12:33:07;100165.03;;;14.98;54.82
9893;BME280;4985;49.092;8.542;2023-02-19T12:35:44;100169.53;;;14.98;54.82
9893;BME280;4985;49.092;8.542;2023-02-19T12:38:21;100161.56;;;14.98;54.82
9893;BME280;4985;49.092;8.542;2023-02-19T12:41:01;100140.91;;;14.85;54.83
9893;BME280;4985;49.092;8.542;2023-02-19T12:43:36;100172.00;;;14.99;54.83
9893;BME280;4985;49.092;8.542;2023-02-19T12:46:07;100154.44;;;14.98;54.83
9893;BME280;4985;49.092;8.542;2023-02-19T12:48:43;100170.34;;;14.98;54.87
9893;BME280;4985;49.092;8.542;2023-02-19T12:51:17;100162.87;;;14.94;54.89
9893;BME280;4985;49.092;8.542;2023-02-19T12:53:50;100174.00;;;14.97;54.91
9893;BME280;4985;49.092;8.542;2023-02-19T12:56:23;100174.81;;;14.98;54.91
9893;BME280;4985;49.092;8.542;2023-02-19T12:58:53;100178.66;;;14.95;54.91
9893;BME280;4985;49.092;8.542;2023-02-19T13:01:25;100175.66;;;14.98;54.89
9893;BME280;4985;49.092;8.542;2023-02-19T13:04:04;100173.81;;;14.99;54.87
9893;BME280;4985;49.092;8.542;2023-02-19T13:06:35;100181.59;;;15.00;54.85
9893;BME280;4985;49.092;8.542;2023-02-19T13:09:10;100178.97;;;15.00;54.84
9893;BME280;4985;49.092;8.542;2023-02-19T13:11:43;100175.47;;;15.00;54.84
9893;BME280;4985;49.092;8.542;2023-02-19T13:14:19;100170.00;;;15.01;54.82
9893;BME280;4985;49.092;8.542;2023-02-19T13:16:49;100160.22;;;15.02;54.81
9893;BME280;4985;49.092;8.542;2023-02-19T13:19:19;100162.69;;;15.03;54.83
9893;BME280;4985;49.092;8.542;2023-02-19T13:21:51;100164.69;;;15.01;54.84
9893;BME280;4985;49.092;8.542;2023-02-19T13:24:41;100167.34;;;15.01;54.83
9893;BME280;4985;49.092;8.542;2023-02-19T13:27:34;100165.53;;;15.02;54.84
9893;BME280;4985;49.092;8.542;2023-02-19T13:30:14;100180.44;;;15.03;54.85
9893;BME280;4985;49.092;8.542;2023-02-19T13:32:57;100174.31;;;15.02;54.86
9893;BME280;4985;49.092;8.542;2023-02-19T13:35:41;100181.44;;;15.02;54.88
9893;BME280;4985;49.092;8.542;2023-02-19T13:38:17;100170.66;;;15.03;54.87
9893;BME280;4985;49.092;8.542;2023-02-19T13:40:53;100142.34;;;14.96;54.85
9893;BME280;4985;49.092;8.542;2023-02-19T13:43:24;100160.03;;;15.03;54.86
9893;BME280;4985;49.092;8.542;2023-02-19T13:45:55;100159.03;;;15.04;54.85
9893;BME280;4985;49.092;8.542;2023-02-19T13:48:27;100162.69;;;15.03;54.85